Wetterdaten: Woche 05.05.25 - 11.05.25 (KW19)
Datum Zeit Temp. I. Temp. A. Feuchte I. Feuchte A. Luftdruck Regen Wind Richtung Sonnenschein Solar Taupunkt Windchill Windböen
05.05.2025 00:00 21,7 °C 4,8 °C 51 % 87 % 1013,8 hPa 0,0 l/m² 1,7 km/h (1 Bft) NW 0,00 h 0 W/m² 2,8 °C 4,8 °C 3,4 km/h (1 Bft)
05.05.2025 01:00 21,7 °C 4,1 °C 51 % 88 % 1014,1 hPa 0,0 l/m² 1,0 km/h (0 Bft) W-NW 0,00 h 0 W/m² 2,3 °C 4,1 °C 2,3 km/h (1 Bft)
05.05.2025 02:00 21,7 °C 3,5 °C 51 % 89 % 1013,9 hPa 0,0 l/m² 1,5 km/h (1 Bft) SW 0,00 h 0 W/m² 1,9 °C 3,5 °C 2,9 km/h (1 Bft)
05.05.2025 03:00 21,6 °C 3,6 °C 51 % 90 % 1014,6 hPa 0,0 l/m² 1,5 km/h (1 Bft) W-SW 0,00 h 0 W/m² 2,2 °C 3,6 °C 3,1 km/h (1 Bft)
05.05.2025 04:00 21,6 °C 5,1 °C 51 % 91 % 1014,8 hPa 0,0 l/m² 1,6 km/h (1 Bft) W-NW 0,00 h 0 W/m² 3,7 °C 5,1 °C 3,5 km/h (1 Bft)
05.05.2025 05:00 21,6 °C 6,0 °C 52 % 90 % 1015,0 hPa 0,0 l/m² 2,0 km/h (1 Bft) N 0,00 h 7 W/m² 4,5 °C 6,0 °C 4,1 km/h (1 Bft)
05.05.2025 06:00 21,6 °C 6,6 °C 52 % 89 % 1015,2 hPa 0,0 l/m² 3,4 km/h (1 Bft) N-NO 0,32 h 36 W/m² 4,9 °C 6,6 °C 5,9 km/h (2 Bft)
05.05.2025 07:00 21,5 °C 7,4 °C 51 % 89 % 1015,6 hPa 0,0 l/m² 4,8 km/h (1 Bft) N-NO 1,00 h 99 W/m² 5,6 °C 7,3 °C 7,8 km/h (2 Bft)
05.05.2025 08:00 21,5 °C 8,2 °C 51 % 86 % 1016,0 hPa 0,0 l/m² 10,9 km/h (2 Bft) O-NO 1,00 h 185 W/m² 6,1 °C 5,2 °C 16,1 km/h (3 Bft)
05.05.2025 09:00 21,7 °C 9,5 °C 51 % 78 % 1016,3 hPa 0,0 l/m² 9,3 km/h (2 Bft) NO 1,00 h 431 W/m² 5,8 °C 7,4 °C 14,9 km/h (3 Bft)
05.05.2025 10:00 21,7 °C 11,2 °C 50 % 74 % 1016,7 hPa 0,0 l/m² 10,8 km/h (2 Bft) O 1,00 h 613 W/m² 6,6 °C 8,6 °C 16,7 km/h (3 Bft)
05.05.2025 11:00 21,7 °C 12,3 °C 50 % 71 % 1016,8 hPa 0,0 l/m² 9,2 km/h (2 Bft) NO 1,00 h 729 W/m² 7,1 °C 10,5 °C 14,6 km/h (3 Bft)
05.05.2025 12:00 21,7 °C 13,1 °C 50 % 67 % 1016,8 hPa 0,0 l/m² 11,3 km/h (2 Bft) NO 1,00 h 771 W/m² 7,2 °C 10,5 °C 17,4 km/h (3 Bft)
05.05.2025 13:00 21,7 °C 13,8 °C 50 % 63 % 1016,8 hPa 0,0 l/m² 10,7 km/h (2 Bft) NO 1,00 h 608 W/m² 6,8 °C 11,6 °C 16,8 km/h (3 Bft)
05.05.2025 14:00 21,7 °C 13,8 °C 50 % 60 % 1016,7 hPa 0,0 l/m² 9,1 km/h (2 Bft) N-NO 1,00 h 450 W/m² 6,1 °C 12,2 °C 14,8 km/h (3 Bft)
05.05.2025 15:00 21,6 °C 13,6 °C 51 % 60 % 1016,6 hPa 0,0 l/m² 9,6 km/h (2 Bft) NO 1,00 h 364 W/m² 6,0 °C 11,8 °C 14,2 km/h (3 Bft)
05.05.2025 16:00 21,6 °C 13,7 °C 51 % 57 % 1016,5 hPa 0,0 l/m² 7,0 km/h (2 Bft) NO 1,00 h 287 W/m² 5,2 °C 13,0 °C 11,7 km/h (2 Bft)
05.05.2025 17:00 21,4 °C 13,9 °C 47 % 54 % 1016,3 hPa 0,0 l/m² 7,3 km/h (2 Bft) NO 1,00 h 256 W/m² 4,8 °C 13,1 °C 12,4 km/h (2 Bft)
05.05.2025 18:00 21,5 °C 13,2 °C 48 % 54 % 1016,4 hPa 0,0 l/m² 5,8 km/h (2 Bft) N-NO 1,00 h 124 W/m² 4,3 °C 13,0 °C 9,8 km/h (2 Bft)
05.05.2025 19:00 21,5 °C 12,5 °C 50 % 55 % 1016,7 hPa 0,0 l/m² 6,8 km/h (2 Bft) N-NO 0,42 h 47 W/m² 3,8 °C 12,0 °C 10,9 km/h (2 Bft)
05.05.2025 20:00 21,5 °C 11,6 °C 50 % 58 % 1017,0 hPa 0,0 l/m² 3,7 km/h (1 Bft) N-NO 0,00 h 11 W/m² 3,7 °C 11,6 °C 6,1 km/h (2 Bft)
05.05.2025 21:00 21,6 °C 10,0 °C 50 % 66 % 1017,6 hPa 0,0 l/m² 4,6 km/h (1 Bft) N 0,00 h 0 W/m² 4,0 °C 10,0 °C 7,3 km/h (2 Bft)
05.05.2025 22:00 21,6 °C 8,4 °C 50 % 72 % 1018,1 hPa 0,0 l/m² 0,9 km/h (0 Bft) NO 0,00 h 0 W/m² 3,6 °C 8,4 °C 2,4 km/h (1 Bft)
05.05.2025 23:00 21,5 °C 6,5 °C 50 % 80 % 1018,3 hPa 0,0 l/m² 0,9 km/h (0 Bft) N 0,00 h 0 W/m² 3,2 °C 6,5 °C 2,3 km/h (1 Bft)
06.05.2025 00:00 21,5 °C 4,9 °C 50 % 83 % 1018,3 hPa 0,0 l/m² 1,6 km/h (1 Bft) W 0,00 h 0 W/m² 2,3 °C 4,9 °C 3,1 km/h (1 Bft)
06.05.2025 01:00 21,4 °C 3,7 °C 50 % 85 % 1018,3 hPa 0,0 l/m² 1,8 km/h (1 Bft) W 0,00 h 0 W/m² 1,4 °C 3,7 °C 3,0 km/h (1 Bft)
06.05.2025 02:00 21,4 °C 3,3 °C 50 % 85 % 1018,1 hPa 0,0 l/m² 2,2 km/h (1 Bft) W 0,00 h 0 W/m² 1,0 °C 3,3 °C 3,3 km/h (1 Bft)
06.05.2025 03:00 21,5 °C 2,8 °C 50 % 85 % 1018,3 hPa 0,0 l/m² 0,6 km/h (0 Bft) W 0,00 h 0 W/m² 0,5 °C 2,8 °C 1,8 km/h (1 Bft)
06.05.2025 04:00 21,4 °C 1,7 °C 50 % 88 % 1018,3 hPa 0,0 l/m² 0,4 km/h (0 Bft) W 0,00 h 0 W/m² -0,1 °C 1,7 °C 0,8 km/h (0 Bft)
06.05.2025 05:00 21,4 °C 1,1 °C 50 % 89 % 1018,4 hPa 0,0 l/m² 0,6 km/h (0 Bft) W 0,00 h 9 W/m² -0,4 °C 1,1 °C 1,8 km/h (1 Bft)
06.05.2025 06:00 21,4 °C 1,8 °C 50 % 90 % 1018,6 hPa 0,0 l/m² 1,7 km/h (1 Bft) W-SW 0,32 h 45 W/m² 0,3 °C 1,8 °C 3,2 km/h (1 Bft)
06.05.2025 07:00 21,3 °C 4,7 °C 48 % 88 % 1018,8 hPa 0,0 l/m² 2,2 km/h (1 Bft) W-SW 1,00 h 173 W/m² 2,8 °C 4,7 °C 4,2 km/h (1 Bft)
06.05.2025 08:00 21,6 °C 8,1 °C 48 % 77 % 1018,9 hPa 0,0 l/m² 3,5 km/h (1 Bft) W 1,00 h 371 W/m² 4,3 °C 8,1 °C 5,8 km/h (2 Bft)
06.05.2025 09:00 21,7 °C 10,8 °C 48 % 66 % 1018,9 hPa 0,0 l/m² 5,7 km/h (2 Bft) NW 1,00 h 567 W/m² 4,7 °C 10,3 °C 10,0 km/h (2 Bft)
06.05.2025 10:00 21,7 °C 12,3 °C 49 % 59 % 1018,9 hPa 0,0 l/m² 9,3 km/h (2 Bft) N-NW 1,00 h 724 W/m² 4,4 °C 10,5 °C 15,3 km/h (3 Bft)
06.05.2025 11:00 21,7 °C 13,0 °C 49 % 56 % 1018,9 hPa 0,0 l/m² 8,2 km/h (2 Bft) N-NW 1,00 h 815 W/m² 4,4 °C 11,7 °C 12,9 km/h (3 Bft)
06.05.2025 12:00 21,6 °C 13,8 °C 49 % 53 % 1018,4 hPa 0,0 l/m² 7,4 km/h (2 Bft) N-NW 1,00 h 840 W/m² 4,4 °C 12,8 °C 12,0 km/h (2 Bft)
06.05.2025 13:00 21,6 °C 14,8 °C 49 % 51 % 1017,9 hPa 0,0 l/m² 7,7 km/h (2 Bft) NW 1,00 h 878 W/m² 4,8 °C 13,9 °C 13,0 km/h (3 Bft)
06.05.2025 14:00 21,7 °C 15,5 °C 49 % 50 % 1017,4 hPa 0,0 l/m² 8,1 km/h (2 Bft) W 1,00 h 827 W/m² 5,2 °C 14,6 °C 13,8 km/h (3 Bft)
06.05.2025 15:00 21,7 °C 16,1 °C 49 % 49 % 1016,9 hPa 0,0 l/m² 8,8 km/h (2 Bft) NW 1,00 h 737 W/m² 5,2 °C 14,8 °C 14,2 km/h (3 Bft)
06.05.2025 16:00 21,7 °C 16,2 °C 49 % 49 % 1016,6 hPa 0,0 l/m² 9,4 km/h (2 Bft) W 1,00 h 609 W/m² 5,6 °C 14,8 °C 15,1 km/h (3 Bft)
06.05.2025 17:00 21,7 °C 15,8 °C 48 % 53 % 1016,6 hPa 0,0 l/m² 7,9 km/h (2 Bft) N-NW 1,00 h 322 W/m² 6,2 °C 14,9 °C 12,5 km/h (2 Bft)
06.05.2025 18:00 21,7 °C 14,4 °C 50 % 61 % 1016,9 hPa 0,0 l/m² 8,7 km/h (2 Bft) W-NW 0,82 h 89 W/m² 7,0 °C 13,1 °C 15,7 km/h (3 Bft)
06.05.2025 19:00 21,7 °C 13,5 °C 51 % 65 % 1017,2 hPa 0,0 l/m² 5,5 km/h (2 Bft) W-NW 0,00 h 31 W/m² 7,0 °C 13,2 °C 10,0 km/h (2 Bft)
06.05.2025 20:00 21,7 °C 12,8 °C 51 % 68 % 1017,5 hPa 0,0 l/m² 2,6 km/h (1 Bft) W-NW 0,00 h 9 W/m² 6,9 °C 12,8 °C 5,4 km/h (1 Bft)
06.05.2025 21:00 21,8 °C 11,8 °C 51 % 73 % 1018,0 hPa 0,0 l/m² 1,2 km/h (1 Bft) W-NW 0,00 h 0 W/m² 7,1 °C 11,8 °C 3,0 km/h (1 Bft)
06.05.2025 22:00 21,7 °C 10,9 °C 51 % 79 % 1018,4 hPa 0,0 l/m² 1,5 km/h (1 Bft) N 0,00 h 0 W/m² 7,3 °C 10,9 °C 2,6 km/h (1 Bft)
06.05.2025 23:00 21,6 °C 10,3 °C 51 % 84 % 1018,5 hPa 0,0 l/m² 0,3 km/h (0 Bft) W 0,00 h 0 W/m² 7,6 °C 10,3 °C 0,6 km/h (0 Bft)
07.05.2025 00:00 21,5 °C 10,0 °C 51 % 85 % 1018,7 hPa 0,0 l/m² 0,6 km/h (0 Bft) W 0,00 h 0 W/m² 7,6 °C 10,0 °C 1,0 km/h (0 Bft)
07.05.2025 01:00 21,5 °C 9,8 °C 51 % 86 % 1018,7 hPa 0,0 l/m² 0,1 km/h (0 Bft) W 0,00 h 0 W/m² 7,5 °C 9,8 °C 0,3 km/h (0 Bft)
07.05.2025 02:00 21,6 °C 8,1 °C 51 % 86 % 1018,8 hPa 0,0 l/m² 0,6 km/h (0 Bft) W 0,00 h 0 W/m² 5,9 °C 8,1 °C 1,1 km/h (1 Bft)
07.05.2025 03:00 21,6 °C 6,7 °C 51 % 89 % 1018,9 hPa 0,0 l/m² 0,1 km/h (0 Bft) W 0,00 h 0 W/m² 5,1 °C 6,7 °C 0,4 km/h (0 Bft)
07.05.2025 04:00 21,6 °C 6,2 °C 51 % 90 % 1019,0 hPa 0,0 l/m² 1,0 km/h (0 Bft) W-NW 0,00 h 0 W/m² 4,6 °C 6,2 °C 2,5 km/h (1 Bft)
07.05.2025 05:00 21,6 °C 6,4 °C 51 % 91 % 1018,8 hPa 0,0 l/m² 2,6 km/h (1 Bft) W-NW 0,00 h 12 W/m² 5,0 °C 6,4 °C 5,2 km/h (1 Bft)
07.05.2025 06:00 21,6 °C 7,4 °C 51 % 91 % 1019,0 hPa 0,0 l/m² 1,0 km/h (0 Bft) W-NW 0,68 h 66 W/m² 6,0 °C 7,4 °C 2,9 km/h (1 Bft)
07.05.2025 07:00 21,6 °C 9,4 °C 51 % 86 % 1019,4 hPa 0,0 l/m² 2,6 km/h (1 Bft) NW 1,00 h 172 W/m² 7,2 °C 9,4 °C 5,0 km/h (1 Bft)
07.05.2025 08:00 21,8 °C 11,5 °C 50 % 77 % 1019,6 hPa 0,0 l/m² 5,4 km/h (1 Bft) N-NW 1,00 h 350 W/m² 7,6 °C 11,3 °C 9,0 km/h (2 Bft)
07.05.2025 09:00 21,8 °C 13,3 °C 50 % 70 % 1019,7 hPa 0,0 l/m² 7,0 km/h (2 Bft) NO 1,00 h 566 W/m² 8,0 °C 12,6 °C 11,8 km/h (2 Bft)
07.05.2025 10:00 21,8 °C 14,5 °C 50 % 66 % 1019,7 hPa 0,0 l/m² 7,4 km/h (2 Bft) NO 1,00 h 575 W/m² 8,3 °C 13,7 °C 12,4 km/h (2 Bft)
07.05.2025 11:00 21,8 °C 14,2 °C 50 % 66 % 1019,7 hPa 0,0 l/m² 8,3 km/h (2 Bft) NO 1,00 h 405 W/m² 7,9 °C 13,0 °C 13,3 km/h (3 Bft)
07.05.2025 12:00 21,7 °C 15,5 °C 50 % 58 % 1019,4 hPa 0,0 l/m² 11,1 km/h (2 Bft) O-NO 1,00 h 715 W/m² 7,2 °C 13,3 °C 17,8 km/h (3 Bft)
07.05.2025 13:00 21,7 °C 15,7 °C 50 % 54 % 1019,1 hPa 0,0 l/m² 12,9 km/h (3 Bft) NO 1,00 h 638 W/m² 6,5 °C 12,9 °C 19,6 km/h (3 Bft)
07.05.2025 14:00 21,7 °C 16,1 °C 50 % 49 % 1018,8 hPa 0,0 l/m² 13,9 km/h (3 Bft) O 1,00 h 678 W/m² 5,4 °C 13,0 °C 20,8 km/h (4 Bft)
07.05.2025 15:00 21,7 °C 17,2 °C 50 % 43 % 1018,5 hPa 0,0 l/m² 11,5 km/h (2 Bft) NO 1,00 h 754 W/m² 4,4 °C 15,1 °C 18,2 km/h (3 Bft)
07.05.2025 16:00 21,7 °C 16,5 °C 49 % 41 % 1018,3 hPa 0,0 l/m² 9,8 km/h (2 Bft) NO 1,00 h 551 W/m² 3,2 °C 15,0 °C 16,2 km/h (3 Bft)
07.05.2025 17:00 21,7 °C 15,7 °C 50 % 40 % 1018,1 hPa 0,0 l/m² 11,0 km/h (2 Bft) NO 1,00 h 338 W/m² 2,2 °C 13,6 °C 17,8 km/h (3 Bft)
07.05.2025 18:00 21,7 °C 15,1 °C 50 % 40 % 1018,1 hPa 0,0 l/m² 11,8 km/h (2 Bft) NO 1,00 h 157 W/m² 1,5 °C 12,5 °C 19,2 km/h (3 Bft)
07.05.2025 19:00 21,7 °C 13,9 °C 50 % 41 % 1018,3 hPa 0,0 l/m² 9,4 km/h (2 Bft) NO 0,47 h 49 W/m² 1,0 °C 12,3 °C 16,0 km/h (3 Bft)
07.05.2025 20:00 21,7 °C 12,0 °C 50 % 45 % 1018,7 hPa 0,0 l/m² 5,5 km/h (2 Bft) NO 0,00 h 16 W/m² 0,4 °C 11,8 °C 9,2 km/h (2 Bft)
07.05.2025 21:00 21,6 °C 10,6 °C 49 % 49 % 1018,9 hPa 0,0 l/m² 5,3 km/h (1 Bft) NO 0,00 h 0 W/m² 0,3 °C 10,5 °C 8,6 km/h (2 Bft)
07.05.2025 22:00 21,6 °C 9,9 °C 50 % 53 % 1018,9 hPa 0,0 l/m² 5,3 km/h (1 Bft) NO 0,00 h 0 W/m² 0,7 °C 9,8 °C 8,5 km/h (2 Bft)
07.05.2025 23:00 21,4 °C 8,9 °C 50 % 57 % 1018,9 hPa 0,0 l/m² 3,6 km/h (1 Bft) NO 0,00 h 0 W/m² 0,9 °C 8,9 °C 6,9 km/h (2 Bft)
08.05.2025 00:00 21,4 °C 7,5 °C 50 % 66 % 1019,0 hPa 0,0 l/m² 2,4 km/h (1 Bft) O 0,00 h 0 W/m² 1,5 °C 7,5 °C 5,0 km/h (1 Bft)
08.05.2025 01:00 21,4 °C 6,2 °C 50 % 71 % 1018,9 hPa 0,0 l/m² 4,3 km/h (1 Bft) O 0,00 h 0 W/m² 1,5 °C 6,2 °C 6,1 km/h (2 Bft)
08.05.2025 02:00 21,5 °C 5,8 °C 50 % 73 % 1018,7 hPa 0,0 l/m² 2,5 km/h (1 Bft) O-NO 0,00 h 0 W/m² 1,3 °C 5,8 °C 3,8 km/h (1 Bft)
08.05.2025 03:00 21,4 °C 5,0 °C 50 % 79 % 1018,6 hPa 0,0 l/m² 3,7 km/h (1 Bft) O-NO 0,00 h 0 W/m² 1,6 °C 5,0 °C 5,2 km/h (1 Bft)
08.05.2025 04:00 21,4 °C 5,1 °C 50 % 77 % 1018,6 hPa 0,0 l/m² 3,8 km/h (1 Bft) O-NO 0,00 h 0 W/m² 1,4 °C 5,1 °C 5,6 km/h (2 Bft)
08.05.2025 05:00 21,5 °C 4,7 °C 50 % 80 % 1018,6 hPa 0,0 l/m² 1,1 km/h (1 Bft) O-NO 0,00 h 13 W/m² 1,5 °C 4,7 °C 2,1 km/h (1 Bft)
08.05.2025 06:00 21,5 °C 4,2 °C 50 % 86 % 1018,8 hPa 0,0 l/m² 0,7 km/h (0 Bft) O-NO 0,48 h 55 W/m² 2,0 °C 4,2 °C 1,6 km/h (1 Bft)
08.05.2025 07:00 21,4 °C 6,3 °C 49 % 84 % 1019,1 hPa 0,0 l/m² 2,5 km/h (1 Bft) SO 1,00 h 165 W/m² 3,8 °C 6,2 °C 4,4 km/h (1 Bft)
08.05.2025 08:00 21,6 °C 9,7 °C 49 % 68 % 1019,5 hPa 0,0 l/m² 8,5 km/h (2 Bft) O-NO 1,00 h 303 W/m² 4,1 °C 8,2 °C 13,4 km/h (3 Bft)
08.05.2025 09:00 21,6 °C 10,9 °C 49 % 66 % 1019,6 hPa 0,0 l/m² 8,4 km/h (2 Bft) O-NO 1,00 h 387 W/m² 4,8 °C 9,5 °C 12,9 km/h (3 Bft)
08.05.2025 10:00 21,7 °C 12,2 °C 49 % 58 % 1019,7 hPa 0,0 l/m² 11,5 km/h (2 Bft) O 1,00 h 508 W/m² 4,0 °C 9,3 °C 16,6 km/h (3 Bft)
08.05.2025 11:00 21,7 °C 12,3 °C 49 % 55 % 1019,7 hPa 0,0 l/m² 14,9 km/h (3 Bft) O 1,00 h 524 W/m² 3,7 °C 8,1 °C 20,7 km/h (4 Bft)
08.05.2025 12:00 21,7 °C 13,3 °C 49 % 54 % 1019,4 hPa 0,0 l/m² 13,1 km/h (3 Bft) O 1,00 h 696 W/m² 4,1 °C 10,0 °C 18,6 km/h (3 Bft)
08.05.2025 13:00 21,7 °C 13,8 °C 49 % 52 % 1019,2 hPa 0,0 l/m² 11,6 km/h (2 Bft) O 1,00 h 510 W/m² 4,0 °C 11,2 °C 17,3 km/h (3 Bft)
08.05.2025 14:00 21,7 °C 14,1 °C 49 % 51 % 1019,0 hPa 0,0 l/m² 11,9 km/h (2 Bft) O 1,00 h 598 W/m² 4,2 °C 11,4 °C 17,3 km/h (3 Bft)
08.05.2025 15:00 21,6 °C 14,6 °C 49 % 48 % 1018,8 hPa 0,0 l/m² 11,6 km/h (2 Bft) O 1,00 h 486 W/m² 3,7 °C 12,1 °C 17,6 km/h (3 Bft)
08.05.2025 16:00 21,6 °C 15,1 °C 49 % 47 % 1018,7 hPa 0,0 l/m² 9,1 km/h (2 Bft) O 1,00 h 539 W/m² 3,8 °C 13,6 °C 14,0 km/h (3 Bft)
08.05.2025 17:00 21,5 °C 14,2 °C 47 % 48 % 1018,6 hPa 0,0 l/m² 7,9 km/h (2 Bft) O 1,00 h 310 W/m² 3,4 °C 13,1 °C 11,7 km/h (2 Bft)
08.05.2025 18:00 21,4 °C 13,5 °C 47 % 51 % 1018,4 hPa 0,0 l/m² 7,5 km/h (2 Bft) O 1,00 h 153 W/m² 3,7 °C 12,5 °C 10,6 km/h (2 Bft)
08.05.2025 19:00 21,5 °C 13,4 °C 48 % 53 % 1018,5 hPa 0,0 l/m² 1,2 km/h (1 Bft) O 0,03 h 77 W/m² 4,0 °C 13,4 °C 2,4 km/h (1 Bft)
09.05.2025 20:00 21,2 °C 11,3 °C 51 % 75 % 1020,9 hPa 0,0 l/m² 0,0 km/h (0 Bft) N 0,00 h 0 W/m² 7,1 °C 11,3 °C 0,0 km/h (0 Bft)
09.05.2025 21:00 21,2 °C 9,7 °C 50 % 80 % 1021,2 hPa 0,0 l/m² 0,0 km/h (0 Bft) N 0,00 h 0 W/m² 6,3 °C 9,7 °C 0,0 km/h (0 Bft)
09.05.2025 22:00 21,2 °C 7,7 °C 50 % 85 % 1021,4 hPa 0,0 l/m² 0,0 km/h (0 Bft) N 0,00 h 0 W/m² 5,3 °C 7,7 °C 0,0 km/h (0 Bft)
09.05.2025 23:00 21,2 °C 6,4 °C 50 % 88 % 1021,6 hPa 0,0 l/m² 0,0 km/h (0 Bft) N 0,00 h 0 W/m² 4,6 °C 6,4 °C 0,0 km/h (0 Bft)
10.05.2025 00:00 21,1 °C 5,6 °C 50 % 90 % 1021,8 hPa 0,0 l/m² 0,0 km/h (0 Bft) N 0,00 h 0 W/m² 4,2 °C 5,6 °C 0,0 km/h (0 Bft)
10.05.2025 01:00 21,1 °C 4,8 °C 50 % 91 % 1021,7 hPa 0,0 l/m² 0,0 km/h (0 Bft) N 0,00 h 0 W/m² 3,5 °C 4,8 °C 0,0 km/h (0 Bft)
10.05.2025 02:00 21,2 °C 4,2 °C 50 % 92 % 1021,6 hPa 0,0 l/m² 0,0 km/h (0 Bft) N 0,00 h 0 W/m² 3,0 °C 4,2 °C 0,0 km/h (0 Bft)
10.05.2025 03:00 21,2 °C 4,7 °C 50 % 93 % 1021,5 hPa 0,0 l/m² 0,0 km/h (0 Bft) N 0,00 h 0 W/m² 3,7 °C 4,7 °C 0,0 km/h (0 Bft)
10.05.2025 04:00 21,2 °C 5,0 °C 50 % 93 % 1021,6 hPa 0,0 l/m² 0,0 km/h (0 Bft) N 0,00 h 0 W/m² 4,0 °C 5,0 °C 0,0 km/h (0 Bft)
10.05.2025 05:00 21,2 °C 4,3 °C 50 % 92 % 1021,7 hPa 0,0 l/m² 0,0 km/h (0 Bft) N 0,00 h 9 W/m² 3,1 °C 4,3 °C 0,0 km/h (0 Bft)
10.05.2025 06:00 21,2 °C 4,1 °C 50 % 92 % 1021,8 hPa 0,0 l/m² 0,0 km/h (0 Bft) N 0,12 h 34 W/m² 2,9 °C 4,1 °C 0,0 km/h (0 Bft)
10.05.2025 07:00 21,2 °C 6,5 °C 50 % 92 % 1022,1 hPa 0,0 l/m² 0,0 km/h (0 Bft) N 0,93 h 165 W/m² 5,3 °C 6,5 °C 0,0 km/h (0 Bft)
10.05.2025 08:00 21,2 °C 11,1 °C 50 % 85 % 1022,0 hPa 0,0 l/m² 0,4 km/h (0 Bft) N 1,00 h 349 W/m² 8,7 °C 11,1 °C 0,8 km/h (0 Bft)
10.05.2025 09:00 21,3 °C 16,2 °C 50 % 61 % 1021,7 hPa 0,0 l/m² 4,9 km/h (1 Bft) W 1,00 h 560 W/m² 8,6 °C 15,8 °C 8,9 km/h (2 Bft)
10.05.2025 10:00 21,2 °C 17,7 °C 50 % 50 % 1021,4 hPa 0,0 l/m² 9,9 km/h (2 Bft) W 1,00 h 695 W/m² 7,0 °C 16,2 °C 16,6 km/h (3 Bft)
10.05.2025 11:00 21,2 °C 18,8 °C 50 % 48 % 1021,2 hPa 0,0 l/m² 8,5 km/h (2 Bft) W 1,00 h 792 W/m² 7,7 °C 17,8 °C 14,4 km/h (3 Bft)
10.05.2025 12:00 21,2 °C 20,0 °C 50 % 48 % 1020,9 hPa 0,0 l/m² 8,0 km/h (2 Bft) NW 1,00 h 862 W/m² 8,7 °C 19,3 °C 13,5 km/h (3 Bft)
10.05.2025 13:00 21,2 °C 20,3 °C 50 % 47 % 1020,5 hPa 0,0 l/m² 8,7 km/h (2 Bft) W 1,00 h 885 W/m² 8,7 °C 19,4 °C 14,2 km/h (3 Bft)
10.05.2025 14:00 21,1 °C 20,8 °C 50 % 46 % 1020,0 hPa 0,0 l/m² 8,5 km/h (2 Bft) NW 1,00 h 825 W/m² 8,8 °C 20,0 °C 13,9 km/h (3 Bft)
10.05.2025 15:00 21,1 °C 21,2 °C 50 % 43 % 1019,6 hPa 0,0 l/m² 9,2 km/h (2 Bft) NW 1,00 h 742 W/m² 8,1 °C 20,1 °C 14,6 km/h (3 Bft)
10.05.2025 16:00 21,1 °C 21,0 °C 50 % 44 % 1019,2 hPa 0,0 l/m² 9,2 km/h (2 Bft) N-NW 1,00 h 603 W/m² 8,1 °C 20,1 °C 14,3 km/h (3 Bft)
10.05.2025 17:00 21,2 °C 20,6 °C 51 % 47 % 1019,0 hPa 0,0 l/m² 9,4 km/h (2 Bft) N-NW 1,00 h 439 W/m² 9,0 °C 19,5 °C 14,3 km/h (3 Bft)
10.05.2025 18:00 21,2 °C 19,8 °C 51 % 51 % 1018,6 hPa 0,0 l/m² 7,5 km/h (2 Bft) N-NW 0,80 h 138 W/m² 9,3 °C 19,1 °C 11,8 km/h (2 Bft)
10.05.2025 19:00 21,2 °C 18,9 °C 51 % 50 % 1018,6 hPa 0,0 l/m² 6,8 km/h (2 Bft) N-NO 0,00 h 33 W/m² 8,1 °C 18,4 °C 10,9 km/h (2 Bft)
10.05.2025 20:00 21,2 °C 16,8 °C 51 % 62 % 1018,8 hPa 0,0 l/m² 6,1 km/h (2 Bft) NO 0,00 h 14 W/m² 9,3 °C 16,4 °C 10,9 km/h (2 Bft)
10.05.2025 21:00 21,2 °C 13,5 °C 51 % 75 % 1019,5 hPa 0,0 l/m² 2,5 km/h (1 Bft) O-NO 0,00 h 0 W/m² 9,2 °C 13,5 °C 4,4 km/h (1 Bft)
10.05.2025 22:00 21,2 °C 10,3 °C 51 % 84 % 1019,7 hPa 0,0 l/m² 0,8 km/h (0 Bft) SW 0,00 h 0 W/m² 7,7 °C 10,3 °C 1,9 km/h (1 Bft)
10.05.2025 23:00 21,2 °C 8,3 °C 51 % 89 % 1019,8 hPa 0,0 l/m² 0,6 km/h (0 Bft) N 0,00 h 0 W/m² 6,6 °C 8,3 °C 0,9 km/h (0 Bft)
11.05.2025 00:00 21,2 °C 8,2 °C 51 % 90 % 1019,9 hPa 0,0 l/m² 0,1 km/h (0 Bft) N 0,00 h 0 W/m² 6,6 °C 8,2 °C 0,3 km/h (0 Bft)
11.05.2025 01:00 21,2 °C 7,6 °C 50 % 91 % 1020,1 hPa 0,0 l/m² 0,0 km/h (0 Bft) N 0,00 h 0 W/m² 6,3 °C 7,6 °C 0,0 km/h (0 Bft)
11.05.2025 02:00 21,2 °C 6,6 °C 50 % 92 % 1020,0 hPa 0,0 l/m² 0,0 km/h (0 Bft) N 0,00 h 0 W/m² 5,5 °C 6,6 °C 0,0 km/h (0 Bft)
11.05.2025 03:00 21,2 °C 5,8 °C 50 % 93 % 1020,1 hPa 0,0 l/m² 0,0 km/h (0 Bft) N 0,00 h 0 W/m² 4,7 °C 5,8 °C 0,0 km/h (0 Bft)
11.05.2025 04:00 21,2 °C 4,8 °C 50 % 93 % 1020,1 hPa 0,0 l/m² 0,0 km/h (0 Bft) N 0,00 h 0 W/m² 3,8 °C 4,8 °C 0,0 km/h (0 Bft)
11.05.2025 05:00 21,2 °C 4,5 °C 50 % 94 % 1019,8 hPa 0,0 l/m² 0,0 km/h (0 Bft) N 0,00 h 10 W/m² 3,5 °C 4,5 °C 0,0 km/h (0 Bft)
11.05.2025 06:00 21,2 °C 4,4 °C 50 % 94 % 1019,6 hPa 0,0 l/m² 0,0 km/h (0 Bft) N 0,55 h 54 W/m² 3,5 °C 4,4 °C 0,0 km/h (0 Bft)
11.05.2025 07:00 21,2 °C 6,8 °C 50 % 95 % 1019,6 hPa 0,0 l/m² 0,1 km/h (0 Bft) N 1,00 h 163 W/m² 6,0 °C 6,8 °C 0,5 km/h (0 Bft)
11.05.2025 08:00 21,3 °C 11,1 °C 50 % 89 % 1019,6 hPa 0,0 l/m² 2,2 km/h (1 Bft) O 1,00 h 348 W/m² 9,3 °C 11,1 °C 4,1 km/h (1 Bft)
11.05.2025 09:00 21,3 °C 13,4 °C 50 % 80 % 1019,6 hPa 0,0 l/m² 5,4 km/h (1 Bft) O 1,00 h 563 W/m² 10,1 °C 13,3 °C 8,2 km/h (2 Bft)
11.05.2025 10:00 21,3 °C 15,8 °C 50 % 73 % 1019,4 hPa 0,0 l/m² 5,6 km/h (2 Bft) NO 1,00 h 706 W/m² 10,9 °C 15,5 °C 9,2 km/h (2 Bft)
11.05.2025 11:00 21,3 °C 17,4 °C 50 % 65 % 1019,0 hPa 0,0 l/m² 7,2 km/h (2 Bft) O 1,00 h 803 W/m² 10,9 °C 16,7 °C 11,3 km/h (2 Bft)
11.05.2025 12:00 21,2 °C 18,2 °C 50 % 61 % 1018,5 hPa 0,0 l/m² 11,0 km/h (2 Bft) O 1,00 h 863 W/m² 10,5 °C 16,4 °C 15,9 km/h (3 Bft)
11.05.2025 13:00 21,2 °C 18,7 °C 50 % 60 % 1018,0 hPa 0,0 l/m² 10,6 km/h (2 Bft) O 1,00 h 867 W/m² 10,8 °C 17,1 °C 15,0 km/h (3 Bft)
11.05.2025 14:00 21,2 °C 19,3 °C 50 % 56 % 1017,5 hPa 0,0 l/m² 10,3 km/h (2 Bft) O 1,00 h 821 W/m² 10,2 °C 17,8 °C 14,5 km/h (3 Bft)
11.05.2025 15:00 21,3 °C 19,3 °C 50 % 56 % 1017,1 hPa 0,0 l/m² 9,9 km/h (2 Bft) O 1,00 h 746 W/m² 10,2 °C 17,9 °C 14,2 km/h (3 Bft)
11.05.2025 16:00 21,7 °C 19,5 °C 49 % 55 % 1016,4 hPa 0,0 l/m² 8,6 km/h (2 Bft) O 1,00 h 597 W/m² 10,2 °C 18,5 °C 12,7 km/h (3 Bft)
11.05.2025 17:00 21,6 °C 19,1 °C 47 % 55 % 1015,9 hPa 0,0 l/m² 10,4 km/h (2 Bft) O 1,00 h 414 W/m² 9,7 °C 17,5 °C 14,6 km/h (3 Bft)
11.05.2025 18:00 21,6 °C 18,3 °C 46 % 55 % 1015,7 hPa 0,0 l/m² 10,8 km/h (2 Bft) O 0,70 h 154 W/m² 9,2 °C 16,5 °C 15,1 km/h (3 Bft)
11.05.2025 19:00 21,6 °C 17,0 °C 49 % 59 % 1015,6 hPa 0,0 l/m² 8,1 km/h (2 Bft) O 0,37 h 48 W/m² 8,8 °C 16,1 °C 11,3 km/h (2 Bft)
11.05.2025 20:00 21,7 °C 14,5 °C 50 % 68 % 1015,7 hPa 0,0 l/m² 3,2 km/h (1 Bft) O 0,00 h 16 W/m² 8,7 °C 14,5 °C 4,7 km/h (1 Bft)
11.05.2025 21:00 21,8 °C 12,3 °C 50 % 74 % 1016,0 hPa 0,0 l/m² 1,6 km/h (1 Bft) O 0,00 h 0 W/m² 7,8 °C 12,3 °C 2,4 km/h (1 Bft)
11.05.2025 22:00 21,7 °C 10,4 °C 50 % 79 % 1016,0 hPa 0,0 l/m² 3,0 km/h (1 Bft) O-NO 0,00 h 0 W/m² 7,0 °C 10,4 °C 4,1 km/h (1 Bft)
11.05.2025 23:00 21,6 °C 9,5 °C 50 % 77 % 1016,1 hPa 0,0 l/m² 3,0 km/h (1 Bft) O 0,00 h 0 W/m² 5,6 °C 9,5 °C 4,0 km/h (1 Bft)
Min-Datum _ 11.05.25 06.05.25 11.05.25 07.05.25 05.05.25 - 11.05.25 - - - 06.05.25 06.05.25 11.05.25
_ Min-Zeit 06:02 05:04 18:00 15:45 02:04 - 21:04 - - - 05:04 05:04 21:04
Minimum _ 21,1 °C 0,8 °C 46 % 37 % 1013,5 hPa - 0,0 km/h (0 Bft) - - - -1,0 °C 0,8 °C 0,0 km/h (0 Bft)
Max-Datum _ 07.05.25 10.05.25 06.05.25 11.05.25 10.05.25 11.05.25 07.05.25 - 11.05.25 05.05.25 11.05.25 10.05.25 07.05.25
_ Max-Zeit 10:53 15:36 21:19 08:00 08:00 23:00 14:04 - 15:40 13:27 12:50 15:37 14:04
Maximum _ 21,9 °C 21,6 °C 52 % 95 % 1022,2 hPa 0,0 l/m² 26,5 km/h
O (4 Bft)
- 0,13 h 1129 W/m² 12,1 °C 21,5 °C 35,4 km/h
O-NO (5 Bft)
Durchschnitt _ 21,5 °C 11,1 °C 50 % 70 % 1018,5 hPa #0,0 l/m² 5,1 km/h (1 Bft) N #75:01 h 262 W/m² 5,3 °C 10,4 °C 8,2 km/h (2 Bft)
© 2009 Mathias Hoßbach